createdAt,value
2018-04-26T00:02:02.262Z,15.20
2018-04-26T00:04:29.698Z,15.20
2018-04-26T00:06:57.141Z,15.10
2018-04-26T00:09:25.354Z,15.00
2018-04-26T00:11:52.827Z,15.00
2018-04-26T00:14:20.282Z,15.00
2018-04-26T00:16:47.721Z,14.90
2018-04-26T00:19:15.161Z,15.00
2018-04-26T00:21:42.650Z,15.00
2018-04-26T00:24:10.095Z,14.80
2018-04-26T00:26:37.598Z,14.70
2018-04-26T00:29:05.037Z,14.90
2018-04-26T00:31:32.587Z,14.80
2018-04-26T00:34:00.042Z,14.80
2018-04-26T00:36:27.504Z,14.90
2018-04-26T00:38:54.955Z,14.70
2018-04-26T00:41:22.408Z,14.70
2018-04-26T00:43:49.880Z,14.70
2018-04-26T00:46:17.311Z,14.70
2018-04-26T00:48:44.746Z,14.60
2018-04-26T00:51:12.239Z,14.70
2018-04-26T00:53:39.712Z,14.70
2018-04-26T00:56:07.464Z,14.70
2018-04-26T00:58:34.915Z,14.60
2018-04-26T01:01:02.358Z,14.60
2018-04-26T01:03:29.831Z,14.60
2018-04-26T01:05:57.289Z,14.50
2018-04-26T01:08:24.751Z,14.50
2018-04-26T01:10:52.201Z,14.50
2018-04-26T01:13:19.655Z,14.60
2018-04-26T01:15:47.089Z,14.40
2018-04-26T01:18:14.566Z,14.50
2018-04-26T01:20:42.006Z,14.40
2018-04-26T01:23:09.442Z,14.50
2018-04-26T01:25:36.883Z,14.40
2018-04-26T01:28:05.115Z,14.50
2018-04-26T01:30:32.572Z,14.50
2018-04-26T01:33:00.004Z,14.40
2018-04-26T01:35:27.482Z,14.40
2018-04-26T01:37:56.678Z,14.40
2018-04-26T01:40:24.120Z,14.40
2018-04-26T01:42:51.554Z,14.50
2018-04-26T01:45:19.054Z,14.20
2018-04-26T01:47:46.483Z,14.20
2018-04-26T01:50:13.970Z,14.40
2018-04-26T01:52:41.400Z,14.50
2018-04-26T01:55:08.883Z,14.50
2018-04-26T01:57:36.338Z,14.50
2018-04-26T02:00:03.794Z,14.30
2018-04-26T02:02:31.250Z,14.30
2018-04-26T02:04:58.706Z,14.20
2018-04-26T02:07:26.170Z,14.20
2018-04-26T02:09:53.598Z,14.20
2018-04-26T02:12:21.046Z,14.30
2018-04-26T02:14:48.539Z,14.30
2018-04-26T02:17:15.999Z,14.40
2018-04-26T02:19:43.429Z,14.40
2018-04-26T02:22:10.885Z,14.40
2018-04-26T02:24:38.369Z,14.40
2018-04-26T02:27:05.926Z,14.30
2018-04-26T02:29:33.380Z,14.20
2018-04-26T02:32:00.839Z,14.20
2018-04-26T02:34:28.275Z,14.20
2018-04-26T02:36:55.710Z,14.20
2018-04-26T02:39:23.215Z,14.30
2018-04-26T02:41:50.666Z,14.30
2018-04-26T02:44:18.109Z,14.40
2018-04-26T02:46:45.555Z,14.20
2018-04-26T02:49:13.256Z,14.10
2018-04-26T02:51:40.700Z,14.00
2018-04-26T02:54:08.166Z,14.10
2018-04-26T02:56:35.593Z,14.10
2018-04-26T02:59:03.067Z,14.10
2018-04-26T03:01:30.525Z,14.10
2018-04-26T03:03:57.962Z,14.00
2018-04-26T03:06:25.397Z,14.10
2018-04-26T03:08:52.902Z,14.10
2018-04-26T03:11:20.334Z,14.00
2018-04-26T03:13:48.631Z,14.10
2018-04-26T03:16:16.071Z,14.10
2018-04-26T03:18:43.538Z,14.10
2018-04-26T03:21:11.000Z,14.10
2018-04-26T03:23:38.433Z,14.00
2018-04-26T03:26:06.158Z,14.00
2018-04-26T03:28:34.366Z,14.00
2018-04-26T03:31:01.886Z,13.90
2018-04-26T03:33:29.238Z,13.90
2018-04-26T03:35:56.761Z,14.00
2018-04-26T03:38:24.198Z,14.00
2018-04-26T03:40:51.626Z,14.00
2018-04-26T03:43:19.849Z,13.90
2018-04-26T03:45:47.295Z,13.90
2018-04-26T03:48:14.738Z,13.90
2018-04-26T03:50:42.169Z,13.90
2018-04-26T03:53:10.394Z,13.70
2018-04-26T03:55:37.854Z,13.70
2018-04-26T03:58:05.298Z,13.90
2018-04-26T04:00:44.745Z,13.80
2018-04-26T04:03:24.110Z,13.80
2018-04-26T04:08:52.882Z,13.80
2018-04-26T04:11:20.352Z,13.80
2018-04-26T04:13:47.815Z,13.90
2018-04-26T04:16:15.270Z,13.90
2018-04-26T04:18:42.720Z,13.80
2018-04-26T04:21:10.158Z,13.80
2018-04-26T04:23:37.606Z,13.80
2018-04-26T04:26:05.089Z,13.70
2018-04-26T04:28:32.523Z,13.70
2018-04-26T04:31:00.007Z,13.60
2018-04-26T04:33:27.462Z,13.60
2018-04-26T04:35:54.921Z,13.60
2018-04-26T04:38:23.098Z,13.60
2018-04-26T04:40:50.661Z,13.70
2018-04-26T04:43:18.109Z,13.60
2018-04-26T04:45:45.566Z,13.60
2018-04-26T04:48:13.022Z,13.50
2018-04-26T04:50:40.458Z,13.60
2018-04-26T04:53:07.946Z,13.70
2018-04-26T04:55:35.394Z,13.70
2018-04-26T04:58:02.850Z,13.60
2018-04-26T05:00:30.310Z,13.50
2018-04-26T05:02:57.751Z,13.50
2018-04-26T05:05:25.234Z,13.70
2018-04-26T05:07:52.689Z,13.60
2018-04-26T05:10:20.897Z,13.60
2018-04-26T05:12:49.133Z,13.60
2018-04-26T05:15:16.582Z,13.60
2018-04-26T05:17:44.019Z,13.80
2018-04-26T05:20:11.454Z,13.80
2018-04-26T05:22:38.953Z,13.80
2018-04-26T05:25:06.414Z,13.70
2018-04-26T05:27:33.933Z,13.70
2018-04-26T05:30:01.455Z,13.70
2018-04-26T05:32:29.579Z,13.70
2018-04-26T05:34:57.075Z,13.70
2018-04-26T05:37:24.630Z,13.80
2018-04-26T05:39:52.057Z,13.80
2018-04-26T05:42:19.507Z,13.80
2018-04-26T05:44:46.998Z,13.70
2018-04-26T05:47:14.603Z,13.60
2018-04-26T05:49:42.010Z,13.70
2018-04-26T05:52:09.458Z,13.70
2018-04-26T05:54:36.901Z,13.70
2018-04-26T05:57:04.339Z,13.70
2018-04-26T05:59:32.542Z,13.90
2018-04-26T06:01:59.974Z,13.80
2018-04-26T06:04:27.462Z,13.90
2018-04-26T06:06:54.901Z,13.90
2018-04-26T06:09:22.333Z,14.00
2018-04-26T06:11:50.530Z,14.10
2018-04-26T06:14:17.962Z,14.10
2018-04-26T06:16:45.502Z,14.20
2018-04-26T06:19:12.906Z,14.20
2018-04-26T06:21:40.346Z,14.20
2018-04-26T06:24:08.660Z,14.30
2018-04-26T06:26:36.119Z,14.30
2018-04-26T06:29:03.554Z,14.30
2018-04-26T06:31:30.990Z,14.30
2018-04-26T06:33:58.482Z,14.40
2018-04-26T06:36:25.922Z,14.30
2018-04-26T06:38:53.358Z,14.30
2018-04-26T06:41:20.841Z,14.40
2018-04-26T06:43:48.309Z,14.40
2018-04-26T06:46:15.749Z,14.40
2018-04-26T06:48:43.178Z,14.40
2018-04-26T06:51:10.682Z,14.40
2018-04-26T06:53:38.118Z,14.40
2018-04-26T06:56:05.599Z,14.40
2018-04-26T06:58:33.060Z,14.40
2018-04-26T07:01:00.502Z,14.40
2018-04-26T07:03:27.948Z,14.40
2018-04-26T07:05:55.447Z,14.50
2018-04-26T07:08:23.573Z,14.60
2018-04-26T07:10:51.055Z,14.50
2018-04-26T07:13:18.515Z,14.60
2018-04-26T07:15:45.965Z,14.60
2018-04-26T07:18:13.406Z,14.60
2018-04-26T07:20:40.838Z,14.70
2018-04-26T07:23:08.274Z,14.70
2018-04-26T07:25:36.472Z,14.70
2018-04-26T07:28:03.954Z,14.70
2018-04-26T07:30:31.395Z,14.70
2018-04-26T07:32:58.890Z,14.70
2018-04-26T07:35:26.338Z,14.80
2018-04-26T07:37:53.797Z,14.80
2018-04-26T07:40:21.342Z,14.80
2018-04-26T07:42:48.774Z,14.70
2018-04-26T07:45:16.218Z,14.70
2018-04-26T07:47:44.455Z,14.70
2018-04-26T07:50:11.906Z,14.70
2018-04-26T07:52:39.774Z,14.80
2018-04-26T07:55:07.212Z,14.80
2018-04-26T07:57:34.695Z,14.70
2018-04-26T08:00:02.242Z,14.80
2018-04-26T08:02:29.699Z,14.80
2018-04-26T08:04:57.170Z,14.80
2018-04-26T08:07:24.597Z,14.90
2018-04-26T08:09:52.066Z,14.80
2018-04-26T08:12:19.493Z,14.90
2018-04-26T08:14:46.978Z,14.90
2018-04-26T08:17:15.236Z,15.00
2018-04-26T08:19:42.782Z,14.90
2018-04-26T08:22:10.177Z,15.00
2018-04-26T08:24:37.630Z,15.00
2018-04-26T08:27:05.087Z,15.00
2018-04-26T08:29:32.520Z,15.10
2018-04-26T08:31:59.981Z,15.10
2018-04-26T08:34:27.459Z,15.10
2018-04-26T08:36:54.966Z,15.20
2018-04-26T08:39:22.338Z,15.20
2018-04-26T08:41:49.826Z,15.10
2018-04-26T08:44:17.286Z,15.10
2018-04-26T08:46:45.481Z,15.20
2018-04-26T08:49:12.910Z,15.20
2018-04-26T08:51:40.347Z,15.20
2018-04-26T08:54:07.793Z,15.20
2018-04-26T08:56:35.230Z,15.30
2018-04-26T08:59:03.438Z,15.30
2018-04-26T09:01:30.893Z,15.30
2018-04-26T09:03:58.325Z,15.30
2018-04-26T09:06:26.533Z,15.20
2018-04-26T09:08:53.985Z,15.20
2018-04-26T09:11:21.422Z,15.20
2018-04-26T09:13:49.134Z,15.30
2018-04-26T09:16:16.595Z,15.40
2018-04-26T09:18:44.034Z,15.40
2018-04-26T09:21:11.469Z,15.50
2018-04-26T09:23:38.946Z,15.50
2018-04-26T09:26:06.385Z,15.40
2018-04-26T09:28:33.862Z,15.40
2018-04-26T09:31:01.323Z,15.50
2018-04-26T09:33:28.769Z,15.50
2018-04-26T09:35:56.214Z,15.50
2018-04-26T09:38:23.648Z,15.50
2018-04-26T09:40:51.966Z,15.50
2018-04-26T09:43:19.403Z,15.50
2018-04-26T09:45:46.834Z,15.40
2018-04-26T09:48:15.058Z,15.40
2018-04-26T09:50:42.489Z,15.40
2018-04-26T09:53:09.925Z,15.40
2018-04-26T09:55:38.142Z,15.50
2018-04-26T09:58:05.602Z,15.40
2018-04-26T10:00:33.046Z,15.60
2018-04-26T10:03:00.520Z,15.70
2018-04-26T10:05:33.711Z,15.90
2018-04-26T10:08:01.173Z,15.80
2018-04-26T10:10:28.602Z,15.70
2018-04-26T10:12:56.073Z,15.60
2018-04-26T10:15:23.521Z,15.40
2018-04-26T10:17:50.974Z,15.50
2018-04-26T10:20:18.409Z,15.50
2018-04-26T10:22:45.842Z,15.50
2018-04-26T10:25:14.078Z,15.70
2018-04-26T10:27:41.533Z,15.70
2018-04-26T10:30:08.986Z,15.70
2018-04-26T10:32:36.423Z,15.70
2018-04-26T10:35:03.903Z,15.70
2018-04-26T10:37:31.979Z,15.80
2018-04-26T10:39:59.430Z,16.00
2018-04-26T10:42:26.871Z,16.20
2018-04-26T10:44:54.342Z,16.30
2018-04-26T10:47:21.806Z,16.30
2018-04-26T10:49:49.257Z,16.20
2018-04-26T10:52:16.720Z,16.10
2018-04-26T10:54:44.154Z,16.10
2018-04-26T10:57:11.590Z,16.20
2018-04-26T10:59:39.046Z,16.10
2018-04-26T11:02:06.546Z,16.10
2018-04-26T11:04:34.103Z,16.00
2018-04-26T11:07:01.562Z,15.90
2018-04-26T11:09:28.997Z,15.90
2018-04-26T11:11:56.450Z,16.00
2018-04-26T11:14:23.885Z,16.20
2018-04-26T11:16:52.090Z,16.40
2018-04-26T11:19:19.529Z,16.40
2018-04-26T11:21:47.022Z,16.40
2018-04-26T11:24:14.453Z,16.40
2018-04-26T11:26:41.889Z,16.40
2018-04-26T11:29:10.098Z,16.40
2018-04-26T11:31:37.541Z,16.40
2018-04-26T11:34:05.018Z,16.40
2018-04-26T11:36:32.450Z,16.40
2018-04-26T11:38:59.878Z,16.40
2018-04-26T11:41:28.111Z,16.60
2018-04-26T11:43:55.553Z,16.60
2018-04-26T11:46:23.025Z,16.80
2018-04-26T11:48:50.459Z,16.70
2018-04-26T11:51:17.901Z,16.60
2018-04-26T11:53:45.394Z,16.40
2018-04-26T11:56:12.838Z,16.30
2018-04-26T11:58:40.392Z,16.30
2018-04-26T12:01:07.769Z,16.20
2018-04-26T12:03:35.865Z,16.30
2018-04-26T12:06:03.402Z,16.30
2018-04-26T12:08:30.860Z,16.20
2018-04-26T12:10:58.301Z,16.30
2018-04-26T12:13:25.754Z,16.50
2018-04-26T12:15:53.186Z,16.60
2018-04-26T12:18:20.692Z,16.40
2018-04-26T12:20:48.245Z,16.30
2018-04-26T12:23:15.694Z,16.30
2018-04-26T12:25:43.150Z,16.30
2018-04-26T12:28:10.611Z,16.50
2018-04-26T12:30:38.049Z,16.60
2018-04-26T12:33:05.534Z,16.70
2018-04-26T12:35:33.050Z,16.90
2018-04-26T12:38:00.412Z,17.00
2018-04-26T12:40:27.841Z,17.00
2018-04-26T12:42:56.058Z,16.80
2018-04-26T12:45:23.713Z,16.70
2018-04-26T12:47:51.144Z,16.70
2018-04-26T12:50:19.394Z,16.70
2018-04-26T12:52:46.818Z,16.60
2018-04-26T12:55:14.294Z,16.80
2018-04-26T12:57:41.734Z,16.90
2018-04-26T13:00:09.164Z,17.00
2018-04-26T13:02:36.603Z,17.00
2018-04-26T13:05:04.086Z,16.90
2018-04-26T13:07:32.278Z,16.90
2018-04-26T13:10:00.546Z,16.90
2018-04-26T13:12:27.993Z,17.00
2018-04-26T13:14:55.438Z,17.00
2018-04-26T13:17:22.911Z,17.00
2018-04-26T13:19:51.096Z,17.10
2018-04-26T13:22:18.530Z,17.00
2018-04-26T13:24:46.694Z,17.10
2018-04-26T13:27:14.130Z,17.10
2018-04-26T13:29:42.337Z,17.00
2018-04-26T13:32:09.813Z,17.00
2018-04-26T13:34:37.273Z,16.90
2018-04-26T13:37:04.709Z,16.80
2018-04-26T13:39:32.141Z,16.80
2018-04-26T13:41:59.587Z,16.70
2018-04-26T13:44:27.809Z,16.70
2018-04-26T13:46:55.257Z,16.60
2018-04-26T13:49:22.693Z,16.60
2018-04-26T13:51:50.130Z,16.70
2018-04-26T13:54:18.347Z,16.70
2018-04-26T13:56:45.784Z,16.60
2018-04-26T13:59:13.670Z,16.70
2018-04-26T14:01:41.150Z,16.70
2018-04-26T14:04:08.579Z,16.60
2018-04-26T14:06:36.050Z,16.70
2018-04-26T14:09:03.494Z,16.60
2018-04-26T14:11:30.970Z,16.60
2018-04-26T14:13:58.411Z,16.60
2018-04-26T14:16:25.895Z,16.70
2018-04-26T14:18:53.339Z,16.70
2018-04-26T14:21:20.774Z,16.80
2018-04-26T14:23:48.222Z,16.90
2018-04-26T14:26:15.710Z,16.80
2018-04-26T14:28:43.160Z,16.80
2018-04-26T14:31:10.634Z,16.70
2018-04-26T14:33:38.079Z,16.70
2018-04-26T14:36:05.539Z,16.60
2018-04-26T14:38:32.974Z,16.60
2018-04-26T14:41:00.418Z,16.60
2018-04-26T14:43:27.875Z,16.50
2018-04-26T14:45:55.370Z,16.50
2018-04-26T14:48:22.806Z,16.50
2018-04-26T14:50:50.277Z,16.60
2018-04-26T14:53:17.713Z,16.60
2018-04-26T14:55:45.504Z,16.60
2018-04-26T14:58:12.942Z,16.50
2018-04-26T15:00:40.418Z,16.50
2018-04-26T15:03:07.859Z,16.40
2018-04-26T15:05:35.339Z,16.40
2018-04-26T15:08:02.772Z,16.40
2018-04-26T15:10:30.210Z,16.40
2018-04-26T15:12:57.650Z,16.40
2018-04-26T15:15:25.859Z,16.50
2018-04-26T15:17:53.598Z,16.50
2018-04-26T15:20:21.089Z,16.50
2018-04-26T15:22:48.528Z,16.60
2018-04-26T15:25:16.014Z,16.50
2018-04-26T15:27:43.446Z,16.50
2018-04-26T15:30:10.898Z,16.60
2018-04-26T15:32:38.383Z,16.70
2018-04-26T15:35:05.814Z,16.80
2018-04-26T15:37:33.296Z,16.80
2018-04-26T15:40:00.901Z,16.80
2018-04-26T15:42:29.642Z,16.70
2018-04-26T15:44:57.078Z,16.70
2018-04-26T15:47:24.568Z,16.60
2018-04-26T15:49:52.043Z,16.70
2018-04-26T15:52:31.318Z,16.70
2018-04-26T15:55:10.587Z,16.70
2018-04-26T15:58:07.403Z,16.70
2018-04-26T16:00:52.494Z,16.70
2018-04-26T16:03:31.934Z,16.60
2018-04-26T16:06:30.171Z,16.60
2018-04-26T16:09:09.641Z,16.50
2018-04-26T16:11:59.950Z,16.60
2018-04-26T16:14:39.197Z,16.60
2018-04-26T16:17:33.331Z,16.60
2018-04-26T16:20:18.306Z,16.40
2018-04-26T16:23:03.471Z,16.10
2018-04-26T16:25:42.775Z,16.00
2018-04-26T16:28:28.725Z,15.90
2018-04-26T16:31:13.774Z,15.90
2018-04-26T16:33:53.130Z,15.90
2018-04-26T16:36:32.470Z,15.80
2018-04-26T16:39:21.705Z,15.80
2018-04-26T16:41:49.207Z,15.10
2018-04-26T16:44:16.765Z,14.70
2018-04-26T16:46:44.210Z,14.70
2018-04-26T16:49:11.713Z,14.70
2018-04-26T16:51:39.122Z,14.70
2018-04-26T16:54:07.050Z,14.60
2018-04-26T16:56:36.555Z,14.80
2018-04-26T16:59:05.386Z,14.80
2018-04-26T17:01:32.838Z,14.80
2018-04-26T17:04:00.278Z,14.90
2018-04-26T17:06:27.722Z,14.80
2018-04-26T17:08:55.165Z,14.80
2018-04-26T17:11:23.360Z,14.70
2018-04-26T17:13:50.790Z,14.70
2018-04-26T17:16:18.987Z,15.00
2018-04-26T17:18:46.414Z,14.90
2018-04-26T17:21:14.613Z,15.10
2018-04-26T17:23:42.059Z,15.10
2018-04-26T17:26:09.497Z,15.20
2018-04-26T17:28:37.694Z,15.20
2018-04-26T17:31:05.129Z,15.20
2018-04-26T17:33:33.329Z,15.20
2018-04-26T17:36:00.768Z,15.20
2018-04-26T17:38:28.962Z,15.20
2018-04-26T17:40:56.399Z,15.20
2018-04-26T17:43:24.606Z,15.30
2018-04-26T17:45:52.050Z,15.30
2018-04-26T17:48:19.501Z,15.30
2018-04-26T17:50:46.998Z,15.30
2018-04-26T17:53:14.467Z,15.30
2018-04-26T17:55:41.890Z,15.30
2018-04-26T17:58:09.363Z,15.30
2018-04-26T18:00:36.770Z,15.40
2018-04-26T18:03:04.962Z,15.30
2018-04-26T18:05:32.411Z,15.30
2018-04-26T18:07:59.847Z,15.30
2018-04-26T18:10:28.060Z,15.20
2018-04-26T18:12:55.481Z,15.20
2018-04-26T18:15:23.687Z,15.20
2018-04-26T18:17:51.114Z,15.20
2018-04-26T18:20:19.321Z,15.20
2018-04-26T18:22:46.762Z,15.20
2018-04-26T18:25:15.000Z,15.20
2018-04-26T18:27:42.446Z,15.20
2018-04-26T18:30:09.882Z,15.20
2018-04-26T18:32:37.652Z,15.20
2018-04-26T18:35:05.095Z,15.20
2018-04-26T18:37:32.522Z,15.20
2018-04-26T18:40:00.725Z,15.20
2018-04-26T18:42:28.174Z,15.20
2018-04-26T18:44:55.657Z,15.10
2018-04-26T18:47:23.099Z,15.20
2018-04-26T18:49:50.544Z,15.20
2018-04-26T18:52:17.966Z,15.10
2018-04-26T18:54:46.165Z,15.10
2018-04-26T18:57:13.594Z,15.10
2018-04-26T18:59:41.808Z,15.10
2018-04-26T19:02:09.243Z,15.10
2018-04-26T19:04:36.751Z,15.10
2018-04-26T19:07:04.190Z,15.00
2018-04-26T19:09:31.885Z,15.10
2018-04-26T19:11:59.315Z,15.10
2018-04-26T19:14:26.782Z,15.10
2018-04-26T19:16:54.966Z,15.00
2018-04-26T19:19:22.409Z,15.00
2018-04-26T19:21:49.850Z,15.00
2018-04-26T19:24:17.291Z,15.10
2018-04-26T19:26:44.728Z,15.10
2018-04-26T19:29:12.939Z,15.00
2018-04-26T19:31:40.370Z,15.10
2018-04-26T19:34:08.170Z,15.00
2018-04-26T19:36:35.608Z,15.10
2018-04-26T19:39:03.038Z,15.00
2018-04-26T19:41:31.242Z,15.00
2018-04-26T19:43:58.682Z,14.90
2018-04-26T19:46:26.175Z,15.00
2018-04-26T19:48:53.614Z,15.00
2018-04-26T19:51:21.046Z,14.90
2018-04-26T19:53:48.481Z,14.90
2018-04-26T19:56:15.919Z,14.80
2018-04-26T19:58:43.351Z,14.80
2018-04-26T20:01:10.788Z,14.70
2018-04-26T20:03:38.230Z,14.70
2018-04-26T20:06:06.426Z,14.60
2018-04-26T20:08:33.865Z,14.50
2018-04-26T20:11:01.295Z,14.60
2018-04-26T20:13:28.725Z,14.60
2018-04-26T20:15:56.162Z,14.40
2018-04-26T20:18:23.678Z,14.40
2018-04-26T20:20:51.062Z,14.40
2018-04-26T20:23:18.479Z,14.30
2018-04-26T20:25:46.736Z,14.30
2018-04-26T20:28:14.455Z,14.40
2018-04-26T20:30:42.636Z,14.20
2018-04-26T20:33:10.111Z,14.20
2018-04-26T20:35:37.575Z,14.20
2018-04-26T20:38:05.030Z,14.20
2018-04-26T20:40:32.487Z,14.20
2018-04-26T20:42:59.946Z,14.20
2018-04-26T20:45:27.392Z,14.20
2018-04-26T20:47:54.869Z,14.20
2018-04-26T20:50:22.337Z,14.20
2018-04-26T20:52:49.772Z,14.20
2018-04-26T20:55:17.206Z,14.20
2018-04-26T20:57:44.690Z,14.20
2018-04-26T21:00:12.230Z,14.10
2018-04-26T21:02:39.703Z,14.00
2018-04-26T21:05:07.178Z,14.00
2018-04-26T21:07:34.655Z,14.00
2018-04-26T21:10:02.175Z,13.90
2018-04-26T21:12:29.654Z,13.80
2018-04-26T21:14:57.108Z,13.80
2018-04-26T21:17:24.566Z,13.80
2018-04-26T21:19:52.143Z,13.90
2018-04-26T21:22:20.111Z,13.90
2018-04-26T21:24:47.575Z,13.70
2018-04-26T21:27:15.803Z,13.60
2018-04-26T21:29:43.302Z,13.60
2018-04-26T21:32:10.763Z,13.60
2018-04-26T21:34:38.995Z,13.50
2018-04-26T21:37:06.452Z,13.50
2018-04-26T21:39:33.953Z,13.50
2018-04-26T21:42:02.179Z,13.70
2018-04-26T21:44:29.687Z,13.60
2018-04-26T21:46:57.959Z,13.50
2018-04-26T21:49:25.696Z,13.50
2018-04-26T21:51:58.826Z,13.50
2018-04-26T21:54:31.997Z,13.50
2018-04-26T21:57:05.279Z,13.50
2018-04-26T21:59:38.413Z,13.50
2018-04-26T22:02:11.640Z,13.50
2018-04-26T22:07:40.582Z,13.30
2018-04-26T22:10:08.047Z,13.30
2018-04-26T22:12:35.607Z,13.30
2018-04-26T22:15:03.073Z,13.30
2018-04-26T22:17:31.308Z,13.40
2018-04-26T22:19:58.771Z,13.40
2018-04-26T22:22:26.345Z,13.50
2018-04-26T22:24:53.856Z,13.50
2018-04-26T22:27:21.359Z,13.40
2018-04-26T22:29:49.436Z,13.50
2018-04-26T22:32:16.900Z,13.40
2018-04-26T22:34:44.457Z,13.40
2018-04-26T22:37:11.935Z,13.40
2018-04-26T22:39:40.199Z,13.30
2018-04-26T22:42:08.447Z,13.20
2018-04-26T22:44:36.019Z,13.20
2018-04-26T22:47:03.586Z,13.10
2018-04-26T22:49:31.139Z,13.20
2018-04-26T22:51:58.716Z,13.20
2018-04-26T22:54:26.947Z,13.20
2018-04-26T22:56:54.431Z,13.20
2018-04-26T22:59:21.998Z,13.00
2018-04-26T23:01:49.455Z,13.20
2018-04-26T23:04:16.910Z,13.30
2018-04-26T23:06:44.673Z,13.30
2018-04-26T23:09:12.227Z,13.10
2018-04-26T23:11:39.691Z,13.20
2018-04-26T23:14:07.172Z,13.10
2018-04-26T23:16:34.626Z,13.20
2018-04-26T23:19:02.941Z,13.00
2018-04-26T23:21:30.434Z,13.00
2018-04-26T23:23:57.894Z,13.00
2018-04-26T23:26:25.438Z,13.00
2018-04-26T23:28:52.899Z,13.00
2018-04-26T23:31:20.498Z,13.00
2018-04-26T23:33:48.723Z,13.00
2018-04-26T23:36:16.200Z,13.00
2018-04-26T23:38:43.763Z,13.10
2018-04-26T23:41:11.327Z,13.00
2018-04-26T23:43:39.595Z,12.80
2018-04-26T23:46:08.571Z,12.90
2018-04-26T23:48:36.056Z,12.90
2018-04-26T23:51:03.604Z,12.90
2018-04-26T23:53:31.087Z,12.90
2018-04-26T23:55:59.310Z,12.70
2018-04-26T23:58:26.771Z,12.70
